createdAt,value
2022-11-12T00:00:38.251Z,6.00
2022-11-12T00:03:04.474Z,7.33
2022-11-12T00:05:31.114Z,5.87
2022-11-12T00:07:57.346Z,6.63
2022-11-12T00:10:23.659Z,6.23
2022-11-12T00:12:49.950Z,6.33
2022-11-12T00:15:16.271Z,6.80
2022-11-12T00:17:42.636Z,6.40
2022-11-12T00:20:09.166Z,6.20
2022-11-12T00:22:35.412Z,5.83
2022-11-12T00:25:01.795Z,5.87
2022-11-12T00:27:28.114Z,5.63
2022-11-12T00:29:54.412Z,6.43
2022-11-12T00:32:20.970Z,5.83
2022-11-12T00:34:47.276Z,6.20
2022-11-12T00:37:13.529Z,6.27
2022-11-12T00:39:39.747Z,6.07
2022-11-12T00:42:05.978Z,6.27
2022-11-12T00:44:32.222Z,5.97
2022-11-12T00:46:58.475Z,5.93
2022-11-12T00:49:24.706Z,5.97
2022-11-12T00:51:50.971Z,5.70
2022-11-12T00:54:17.417Z,5.80
2022-11-12T00:56:45.762Z,6.30
2022-11-12T00:59:12.104Z,4.90
2022-11-12T01:01:39.393Z,5.67
2022-11-12T01:04:05.859Z,5.37
2022-11-12T01:06:32.147Z,5.30
2022-11-12T01:08:58.494Z,4.80
2022-11-12T01:11:26.651Z,5.97
2022-11-12T01:13:54.607Z,6.07
2022-11-12T01:16:21.978Z,5.57
2022-11-12T01:18:51.967Z,5.03
2022-11-12T01:21:18.188Z,5.27
2022-11-12T01:23:44.419Z,5.27
2022-11-12T01:26:12.443Z,5.20
2022-11-12T01:28:38.940Z,5.27
2022-11-12T01:31:12.570Z,4.90
2022-11-12T01:33:39.254Z,4.93
2022-11-12T01:36:06.283Z,5.10
2022-11-12T01:38:36.246Z,5.13
2022-11-12T01:41:02.785Z,4.83
2022-11-12T01:43:29.029Z,4.40
2022-11-12T01:45:55.475Z,5.07
2022-11-12T01:48:38.389Z,4.80
2022-11-12T01:51:04.950Z,4.70
2022-11-12T01:53:34.077Z,4.03
2022-11-12T01:56:00.852Z,4.57
2022-11-12T01:58:29.906Z,4.37
2022-11-12T02:00:56.837Z,4.47
2022-11-12T02:03:24.539Z,4.40
2022-11-12T02:06:02.219Z,4.07
2022-11-12T02:08:29.886Z,3.93
2022-11-12T02:10:56.137Z,3.90
2022-11-12T02:13:41.288Z,4.20
2022-11-12T02:16:08.845Z,4.07
2022-11-12T02:18:35.127Z,4.00
2022-11-12T02:21:06.054Z,3.93
2022-11-12T02:23:32.351Z,4.00
2022-11-12T02:26:01.607Z,3.93
2022-11-12T02:28:30.718Z,3.53
2022-11-12T02:30:56.970Z,3.60
2022-11-12T02:33:23.224Z,3.87
2022-11-12T02:35:49.606Z,3.53
2022-11-12T02:38:15.850Z,3.70
2022-11-12T02:40:42.141Z,3.73
2022-11-12T02:43:08.401Z,4.43
2022-11-12T02:45:34.677Z,3.80
2022-11-12T02:48:00.936Z,4.13
2022-11-12T02:50:27.207Z,3.80
2022-11-12T02:52:53.475Z,3.93
2022-11-12T02:55:19.787Z,3.97
2022-11-12T02:57:46.057Z,3.60
2022-11-12T03:00:13.082Z,3.20
2022-11-12T03:02:58.817Z,3.90
2022-11-12T03:05:26.413Z,3.87
2022-11-12T03:07:59.462Z,3.10
2022-11-12T03:10:26.133Z,3.50
2022-11-12T03:12:53.163Z,3.57
2022-11-12T03:15:19.483Z,3.60
2022-11-12T03:17:45.895Z,3.30
2022-11-12T03:20:12.588Z,3.80
2022-11-12T03:22:39.170Z,3.20
2022-11-12T03:25:07.065Z,3.57
2022-11-12T03:27:33.336Z,3.00
2022-11-12T03:29:59.586Z,3.70
2022-11-12T03:32:25.999Z,3.10
2022-11-12T03:34:55.780Z,3.70
2022-11-12T03:37:22.190Z,3.23
2022-11-12T03:39:48.433Z,3.40
2022-11-12T03:42:14.684Z,3.37
2022-11-12T03:44:40.928Z,3.60
2022-11-12T03:47:07.180Z,3.63
2022-11-12T03:49:33.411Z,3.13
2022-11-12T03:51:59.701Z,3.20
2022-11-12T03:54:25.928Z,3.30
2022-11-12T03:56:52.176Z,3.73
2022-11-12T03:59:18.405Z,3.30
2022-11-12T04:01:44.679Z,3.60
2022-11-12T04:04:11.094Z,2.97
2022-11-12T04:06:56.257Z,3.10
2022-11-12T04:09:22.541Z,3.17
2022-11-12T04:11:48.826Z,3.37
2022-11-12T04:14:15.077Z,3.40
2022-11-12T04:17:00.413Z,3.17
2022-11-12T04:19:45.214Z,3.27
2022-11-12T04:22:11.668Z,3.33
2022-11-12T04:24:57.837Z,3.27
2022-11-12T04:27:28.400Z,3.20
2022-11-12T04:30:13.392Z,3.47
2022-11-12T04:32:40.930Z,3.40
2022-11-12T04:35:08.406Z,3.30
2022-11-12T04:37:45.002Z,3.80
2022-11-12T04:40:34.110Z,3.00
2022-11-12T04:43:19.463Z,3.60
2022-11-12T04:45:47.444Z,3.73
2022-11-12T04:48:13.693Z,3.70
2022-11-12T04:50:40.748Z,3.57
2022-11-12T04:53:06.978Z,3.63
2022-11-12T04:55:33.247Z,3.50
2022-11-12T04:58:01.048Z,3.30
2022-11-12T05:00:27.995Z,3.87
2022-11-12T05:02:54.242Z,3.57
2022-11-12T05:05:20.535Z,3.47
2022-11-12T05:07:46.769Z,3.30
2022-11-12T05:10:13.060Z,3.63
2022-11-12T05:12:39.556Z,4.20
2022-11-12T05:15:06.429Z,3.70
2022-11-12T05:17:32.722Z,4.37
2022-11-12T05:19:58.952Z,4.30
2022-11-12T05:22:42.731Z,4.90
2022-11-12T05:25:11.451Z,4.37
2022-11-12T05:27:37.730Z,4.87
2022-11-12T05:30:04.223Z,4.93
2022-11-12T05:32:30.492Z,4.57
2022-11-12T05:34:56.800Z,4.50
2022-11-12T05:37:23.155Z,4.23
2022-11-12T05:39:49.475Z,4.57
2022-11-12T05:42:15.784Z,3.93
2022-11-12T05:44:42.054Z,4.67
2022-11-12T05:47:08.493Z,4.63
2022-11-12T05:49:34.748Z,4.73
2022-11-12T05:52:01.015Z,4.30
2022-11-12T05:54:27.326Z,4.33
2022-11-12T05:56:53.802Z,4.60
2022-11-12T05:59:20.207Z,3.90
2022-11-12T06:01:46.559Z,4.03
2022-11-12T06:04:13.779Z,4.50
2022-11-12T06:06:40.591Z,4.50
2022-11-12T06:09:07.386Z,3.93
2022-11-12T06:11:34.209Z,4.40
2022-11-12T06:14:01.002Z,3.97
2022-11-12T06:16:27.337Z,3.90
2022-11-12T06:18:53.775Z,4.50
2022-11-12T06:21:20.066Z,4.27
2022-11-12T06:23:47.067Z,4.23
2022-11-12T06:26:13.338Z,4.47
2022-11-12T06:28:39.701Z,4.33
2022-11-12T06:31:06.075Z,4.30
2022-11-12T06:33:32.313Z,4.93
2022-11-12T06:36:03.078Z,4.87
2022-11-12T06:38:30.977Z,4.97
2022-11-12T06:40:57.305Z,4.57
2022-11-12T06:43:24.117Z,4.70
2022-11-12T06:45:50.569Z,5.10
2022-11-12T06:48:16.797Z,4.63
2022-11-12T06:50:43.034Z,4.90
2022-11-12T06:53:09.292Z,4.53
2022-11-12T06:55:35.609Z,4.63
2022-11-12T06:58:01.860Z,4.40
2022-11-12T07:00:28.125Z,4.30
2022-11-12T07:02:54.397Z,4.77
2022-11-12T07:05:20.736Z,4.63
2022-11-12T07:07:47.012Z,4.30
2022-11-12T07:10:13.250Z,4.70
2022-11-12T07:12:39.509Z,4.50
2022-11-12T07:15:06.071Z,4.47
2022-11-12T07:17:32.327Z,4.77
2022-11-12T07:20:03.419Z,4.90
2022-11-12T07:22:32.462Z,4.50
2022-11-12T07:24:58.731Z,4.70
2022-11-12T07:27:24.986Z,4.53
2022-11-12T07:29:51.235Z,4.40
2022-11-12T07:32:17.522Z,4.90
2022-11-12T07:34:43.925Z,5.10
2022-11-12T07:37:10.217Z,5.23
2022-11-12T07:39:37.507Z,4.90
2022-11-12T07:42:03.899Z,5.43
2022-11-12T07:44:30.214Z,5.00
2022-11-12T07:46:56.493Z,4.77
2022-11-12T07:49:22.749Z,5.33
2022-11-12T07:51:49.018Z,4.90
2022-11-12T07:54:15.348Z,4.70
2022-11-12T07:56:41.632Z,5.10
2022-11-12T07:59:07.923Z,4.73
2022-11-12T08:01:41.089Z,4.80
2022-11-12T08:04:09.291Z,5.27
2022-11-12T08:06:36.032Z,4.60
2022-11-12T08:09:04.605Z,4.40
2022-11-12T08:11:31.063Z,4.73
2022-11-12T08:13:57.337Z,4.30
2022-11-12T08:16:24.080Z,5.87
2022-11-12T08:18:50.336Z,4.97
2022-11-12T08:21:17.413Z,4.57
2022-11-12T08:23:43.815Z,5.23
2022-11-12T08:26:14.519Z,5.07
2022-11-12T08:28:40.908Z,5.27
2022-11-12T08:31:12.015Z,5.33
2022-11-12T08:33:38.448Z,4.87
2022-11-12T08:36:05.167Z,4.70
2022-11-12T08:38:31.503Z,4.90
2022-11-12T08:41:01.548Z,4.70
2022-11-12T08:43:27.810Z,5.03
2022-11-12T08:45:54.097Z,5.23
2022-11-12T08:48:20.356Z,4.87
2022-11-12T08:50:46.649Z,5.13
2022-11-12T08:53:13.597Z,4.87
2022-11-12T08:55:40.201Z,5.23
2022-11-12T08:58:06.790Z,5.50
2022-11-12T09:00:34.786Z,5.10
2022-11-12T09:03:01.627Z,5.33
2022-11-12T09:05:28.503Z,5.20
2022-11-12T09:07:58.869Z,5.50
2022-11-12T09:10:25.829Z,5.00
2022-11-12T09:12:52.570Z,5.30
2022-11-12T09:18:11.971Z,5.80
2022-11-12T09:20:38.229Z,5.40
2022-11-12T09:23:06.217Z,5.23
2022-11-12T09:25:33.042Z,5.33
2022-11-12T09:28:05.805Z,6.07
2022-11-12T09:30:32.096Z,5.93
2022-11-12T09:32:58.849Z,6.80
2022-11-12T09:35:25.155Z,7.50
2022-11-12T09:37:51.439Z,7.43
2022-11-12T09:40:18.890Z,8.50
2022-11-12T09:42:46.708Z,8.90
2022-11-12T09:45:23.793Z,9.13
2022-11-12T09:47:56.744Z,10.03
2022-11-12T09:50:27.730Z,9.97
2022-11-12T09:53:02.609Z,9.67
2022-11-12T09:55:31.004Z,10.47
2022-11-12T09:57:57.416Z,10.27
2022-11-12T10:00:23.776Z,9.80
2022-11-12T10:02:53.782Z,11.03
2022-11-12T10:05:20.030Z,11.67
2022-11-12T10:07:52.285Z,11.20
2022-11-12T10:10:24.109Z,13.43
2022-11-12T10:12:58.018Z,13.20
2022-11-12T10:15:50.546Z,12.43
2022-11-12T10:18:25.891Z,12.87
2022-11-12T10:20:59.071Z,12.40
2022-11-12T10:23:28.376Z,13.33
2022-11-12T10:25:57.587Z,13.17
2022-11-12T10:28:34.252Z,13.23
2022-11-12T10:31:10.901Z,14.77
2022-11-12T10:33:37.117Z,13.90
2022-11-12T10:36:15.242Z,14.50
2022-11-12T10:38:43.501Z,14.33
2022-11-12T10:41:20.664Z,13.97
2022-11-12T10:43:53.913Z,14.10
2022-11-12T10:46:24.842Z,14.53
2022-11-12T10:48:56.101Z,14.23
2022-11-12T10:51:27.049Z,13.87
2022-11-12T10:53:53.307Z,13.83
2022-11-12T10:56:37.398Z,13.17
2022-11-12T10:59:11.264Z,12.60
2022-11-12T11:01:41.618Z,13.10
2022-11-12T11:04:25.163Z,12.03
2022-11-12T11:07:03.493Z,12.57
2022-11-12T11:09:30.243Z,11.97
2022-11-12T11:11:56.573Z,11.93
2022-11-12T11:14:22.830Z,10.83
2022-11-12T11:16:53.282Z,12.23
2022-11-12T11:19:19.721Z,12.00
2022-11-12T11:21:53.732Z,12.03
2022-11-12T11:24:39.308Z,12.10
2022-11-12T11:27:24.429Z,12.00
2022-11-12T11:30:12.976Z,10.80
2022-11-12T11:32:39.220Z,12.00
2022-11-12T11:35:18.060Z,12.27
2022-11-12T11:37:58.625Z,11.50
2022-11-12T11:40:31.506Z,11.07
2022-11-12T11:42:57.763Z,10.57
2022-11-12T11:45:27.401Z,10.23
2022-11-12T11:48:01.667Z,11.03
2022-11-12T11:50:32.632Z,9.70
2022-11-12T11:53:09.417Z,10.63
2022-11-12T11:55:38.357Z,10.93
2022-11-12T11:58:19.738Z,11.27
2022-11-12T12:00:48.050Z,10.10
2022-11-12T12:03:22.495Z,10.80
2022-11-12T12:06:05.497Z,10.17
2022-11-12T12:08:40.703Z,9.13
2022-11-12T12:11:09.066Z,10.20
2022-11-12T12:13:53.808Z,9.43
2022-11-12T12:16:28.671Z,9.70
2022-11-12T12:19:13.741Z,9.63
2022-11-12T12:21:42.862Z,9.33
2022-11-12T12:24:23.836Z,9.37
2022-11-12T12:26:51.907Z,9.07
2022-11-12T12:29:32.149Z,9.40
2022-11-12T12:32:21.666Z,9.07
2022-11-12T12:35:02.022Z,8.23
2022-11-12T12:37:41.109Z,7.87
2022-11-12T12:40:18.634Z,8.23
2022-11-12T12:42:51.176Z,8.37
2022-11-12T12:45:27.923Z,8.77
2022-11-12T12:47:56.398Z,8.73
2022-11-12T12:50:23.218Z,8.83
2022-11-12T12:53:08.434Z,8.67
2022-11-12T12:55:36.200Z,9.17
2022-11-12T12:58:02.445Z,8.77
2022-11-12T13:00:37.110Z,8.07
2022-11-12T13:03:03.492Z,8.47
2022-11-12T13:05:31.340Z,8.30
2022-11-12T13:08:01.080Z,8.07
2022-11-12T13:10:55.047Z,8.13
2022-11-12T13:13:21.293Z,8.13
2022-11-12T13:15:57.322Z,7.67
2022-11-12T13:18:46.379Z,7.97
2022-11-12T13:21:14.014Z,7.33
2022-11-12T13:24:05.212Z,7.57
2022-11-12T13:26:43.017Z,7.87
2022-11-12T13:29:21.495Z,7.20
2022-11-12T13:31:47.863Z,7.00
2022-11-12T13:34:18.537Z,7.10
2022-11-12T13:36:58.172Z,7.10
2022-11-12T13:39:24.817Z,6.60
2022-11-12T13:42:16.862Z,6.80
2022-11-12T13:44:43.627Z,6.50
2022-11-12T13:47:16.289Z,7.40
2022-11-12T13:49:43.822Z,7.77
2022-11-12T13:52:12.973Z,7.63
2022-11-12T13:54:39.275Z,7.47
2022-11-12T13:57:16.254Z,8.23
2022-11-12T13:59:42.552Z,7.13
2022-11-12T14:02:41.363Z,8.27
2022-11-12T14:05:18.221Z,7.50
2022-11-12T14:07:51.928Z,7.67
2022-11-12T14:10:29.259Z,8.97
2022-11-12T14:13:01.556Z,8.67
2022-11-12T14:15:33.858Z,8.73
2022-11-12T14:18:03.908Z,8.53
2022-11-12T14:20:36.994Z,8.13
2022-11-12T14:23:13.984Z,8.17
2022-11-12T14:25:48.146Z,8.03
2022-11-12T14:28:23.194Z,7.63
2022-11-12T14:30:49.435Z,9.33
2022-11-12T14:33:21.065Z,8.43
2022-11-12T14:35:48.440Z,8.57
2022-11-12T14:38:23.107Z,8.90
2022-11-12T14:40:54.344Z,8.93
2022-11-12T14:43:27.310Z,8.83
2022-11-12T14:45:55.326Z,8.20
2022-11-12T14:48:21.577Z,9.40
2022-11-12T14:50:51.050Z,8.43
2022-11-12T14:53:27.253Z,9.47
2022-11-12T14:55:55.222Z,10.03
2022-11-12T14:58:22.678Z,9.73
2022-11-12T15:00:50.431Z,9.93
2022-11-12T15:03:22.695Z,9.53
2022-11-12T15:05:56.247Z,9.50
2022-11-12T15:08:29.999Z,9.43
2022-11-12T15:10:56.917Z,9.93
2022-11-12T15:13:24.659Z,10.60
2022-11-12T15:15:55.522Z,10.07
2022-11-12T15:18:23.585Z,9.93
2022-11-12T15:21:13.188Z,10.13
2022-11-12T15:23:49.958Z,11.00
2022-11-12T15:26:31.800Z,10.97
2022-11-12T15:28:59.140Z,10.13
2022-11-12T15:31:25.357Z,10.47
2022-11-12T15:33:51.589Z,10.80
2022-11-12T15:36:19.185Z,11.07
2022-11-12T15:38:52.444Z,10.40
2022-11-12T15:41:26.510Z,10.87
2022-11-12T15:43:52.838Z,10.57
2022-11-12T15:46:19.314Z,11.50
2022-11-12T15:48:45.518Z,11.27
2022-11-12T15:51:12.281Z,11.47
2022-11-12T15:53:38.491Z,10.83
2022-11-12T15:56:05.270Z,10.83
2022-11-12T15:58:32.832Z,11.97
2022-11-12T16:00:59.413Z,12.73
2022-11-12T16:03:26.085Z,12.10
2022-11-12T16:05:52.543Z,13.70
2022-11-12T16:08:18.799Z,12.40
2022-11-12T16:10:45.958Z,15.13
2022-11-12T16:13:33.187Z,13.70
2022-11-12T16:16:01.414Z,13.60
2022-11-12T16:18:27.622Z,13.70
2022-11-12T16:20:54.117Z,13.33
2022-11-12T16:23:20.331Z,13.00
2022-11-12T16:25:46.578Z,14.03
2022-11-12T16:28:17.205Z,13.50
2022-11-12T16:30:44.057Z,13.43
2022-11-12T16:33:10.926Z,14.00
2022-11-12T16:35:37.438Z,13.47
2022-11-12T16:38:03.659Z,14.60
2022-11-12T16:40:30.403Z,14.57
2022-11-12T16:42:56.669Z,14.07
2022-11-12T16:45:23.994Z,15.53
2022-11-12T16:47:51.590Z,15.47
2022-11-12T16:50:19.279Z,15.73
2022-11-12T16:52:45.526Z,15.33
2022-11-12T16:55:11.951Z,16.00
2022-11-12T16:57:38.437Z,15.23
2022-11-12T17:00:05.626Z,14.57
2022-11-12T17:02:31.847Z,15.27
2022-11-12T17:05:01.020Z,14.67
2022-11-12T17:07:27.253Z,15.17
2022-11-12T17:09:53.973Z,16.30
2022-11-12T17:12:20.487Z,17.20
2022-11-12T17:14:46.790Z,16.60
2022-11-12T17:17:13.077Z,15.87
2022-11-12T17:19:39.296Z,17.17
2022-11-12T17:22:05.529Z,16.07
2022-11-12T17:24:31.781Z,16.40
2022-11-12T17:27:00.027Z,17.13
2022-11-12T17:29:26.506Z,18.67
2022-11-12T17:31:52.770Z,18.53
2022-11-12T17:34:24.246Z,19.97
2022-11-12T17:36:50.689Z,20.23
2022-11-12T17:39:16.972Z,19.10
2022-11-12T17:41:43.246Z,19.93
2022-11-12T17:44:12.958Z,19.83
2022-11-12T17:46:39.173Z,20.83
2022-11-12T17:49:05.383Z,20.53
2022-11-12T17:51:31.662Z,22.10
2022-11-12T17:53:57.984Z,20.90
2022-11-12T17:56:24.277Z,22.27
2022-11-12T17:58:51.148Z,20.37
2022-11-12T18:01:21.668Z,22.00
2022-11-12T18:03:50.334Z,19.90
2022-11-12T18:06:17.751Z,22.07
2022-11-12T18:08:44.079Z,21.00
2022-11-12T18:11:11.164Z,21.13
2022-11-12T18:13:37.411Z,21.27
2022-11-12T18:16:14.746Z,21.37
2022-11-12T18:18:41.189Z,21.63
2022-11-12T18:21:07.482Z,19.93
2022-11-12T18:23:35.973Z,20.87
2022-11-12T18:26:02.206Z,20.10
2022-11-12T18:28:29.175Z,20.97
2022-11-12T18:30:59.470Z,19.57
2022-11-12T18:33:26.021Z,20.90
2022-11-12T18:36:02.011Z,19.90
2022-11-12T18:38:28.227Z,20.23
2022-11-12T18:41:01.359Z,20.37
2022-11-12T18:43:27.977Z,19.90
2022-11-12T18:45:55.077Z,20.73
2022-11-12T18:48:21.371Z,20.40
2022-11-12T18:50:47.585Z,20.70
2022-11-12T18:53:13.863Z,20.93
2022-11-12T18:55:40.095Z,20.93
2022-11-12T18:58:06.305Z,21.83
2022-11-12T19:00:32.527Z,21.17
2022-11-12T19:02:58.746Z,21.77
2022-11-12T19:05:25.184Z,21.97
2022-11-12T19:07:51.424Z,23.27
2022-11-12T19:10:19.928Z,25.07
2022-11-12T19:12:46.163Z,23.53
2022-11-12T19:15:12.455Z,24.77
2022-11-12T19:17:38.659Z,24.50
2022-11-12T19:20:05.216Z,24.37
2022-11-12T19:22:31.464Z,26.00
2022-11-12T19:24:57.688Z,26.20
2022-11-12T19:27:27.780Z,24.40
2022-11-12T19:29:58.443Z,23.90
2022-11-12T19:32:27.702Z,25.57
2022-11-12T19:34:54.010Z,25.73
2022-11-12T19:37:32.942Z,24.93
2022-11-12T19:39:59.983Z,25.27
2022-11-12T19:42:26.381Z,25.23
2022-11-12T19:44:52.671Z,27.33
2022-11-12T19:47:18.865Z,26.37
2022-11-12T19:49:45.096Z,26.70
2022-11-12T19:52:11.328Z,24.73
2022-11-12T19:54:37.562Z,26.03
2022-11-12T19:57:03.851Z,25.90
2022-11-12T19:59:30.079Z,25.87
2022-11-12T20:01:56.351Z,25.27
2022-11-12T20:04:24.335Z,24.27
2022-11-12T20:06:50.810Z,24.47
2022-11-12T20:09:17.085Z,25.27
2022-11-12T20:11:43.311Z,25.47
2022-11-12T20:14:09.532Z,24.80
2022-11-12T20:16:35.734Z,24.80
2022-11-12T20:19:02.454Z,24.67
2022-11-12T20:21:28.747Z,22.90
2022-11-12T20:23:55.033Z,23.30
2022-11-12T20:26:21.303Z,22.70
2022-11-12T20:28:47.720Z,22.27
2022-11-12T20:31:21.055Z,22.87
2022-11-12T20:33:48.625Z,22.53
2022-11-12T20:36:15.879Z,21.90
2022-11-12T20:38:43.940Z,23.23
2022-11-12T20:41:14.216Z,22.07
2022-11-12T20:43:40.470Z,22.40
2022-11-12T20:46:06.723Z,22.17
2022-11-12T20:48:32.958Z,22.63
2022-11-12T20:51:25.093Z,21.73
2022-11-12T20:53:58.815Z,21.80
2022-11-12T20:56:26.945Z,21.47
2022-11-12T20:58:53.182Z,22.53
2022-11-12T21:01:21.345Z,21.37
2022-11-12T21:03:47.939Z,20.87
2022-11-12T21:06:15.306Z,20.83
2022-11-12T21:08:42.189Z,21.80
2022-11-12T21:11:09.760Z,20.60
2022-11-12T21:13:36.332Z,21.10
2022-11-12T21:16:03.086Z,21.33
2022-11-12T21:18:30.165Z,20.67
2022-11-12T21:21:00.680Z,20.73
2022-11-12T21:23:34.420Z,21.00
2022-11-12T21:26:04.513Z,19.80
2022-11-12T21:28:31.650Z,20.10
2022-11-12T21:31:08.597Z,20.37
2022-11-12T21:33:34.991Z,21.10
2022-11-12T21:36:01.542Z,21.30
2022-11-12T21:38:28.493Z,20.43
2022-11-12T21:41:05.850Z,20.27
2022-11-12T21:43:34.803Z,20.43
2022-11-12T21:46:01.058Z,19.83
2022-11-12T21:48:27.599Z,20.10
2022-11-12T21:50:53.957Z,20.47
2022-11-12T21:53:20.219Z,20.20
2022-11-12T21:55:46.504Z,19.93
2022-11-12T21:58:12.740Z,19.93
2022-11-12T22:00:41.993Z,19.70
2022-11-12T22:03:08.899Z,18.70
2022-11-12T22:05:37.918Z,19.93
2022-11-12T22:08:04.210Z,18.57
2022-11-12T22:10:30.428Z,19.17
2022-11-12T22:13:24.671Z,20.17
2022-11-12T22:15:43.113Z,19.80
2022-11-12T22:18:10.158Z,20.80
2022-11-12T22:20:37.558Z,21.03
2022-11-12T22:23:03.845Z,20.37
2022-11-12T22:25:30.053Z,20.40
2022-11-12T22:27:56.262Z,19.90
2022-11-12T22:30:22.649Z,20.27
2022-11-12T22:32:48.863Z,20.93
2022-11-12T22:35:15.142Z,19.47
2022-11-12T22:37:42.054Z,18.73
2022-11-12T22:40:13.165Z,20.13
2022-11-12T22:42:40.030Z,19.20
2022-11-12T22:45:06.671Z,18.87
2022-11-12T22:47:32.942Z,18.97
2022-11-12T22:49:59.158Z,19.03
2022-11-12T22:52:25.362Z,20.07
2022-11-12T22:54:51.583Z,20.33
2022-11-12T22:57:17.811Z,20.00
2022-11-12T22:59:44.193Z,19.77
2022-11-12T23:02:10.642Z,19.10
2022-11-12T23:04:36.923Z,20.10
2022-11-12T23:07:03.216Z,19.50
2022-11-12T23:09:30.506Z,20.87
2022-11-12T23:11:56.720Z,20.17
2022-11-12T23:14:23.043Z,19.40
2022-11-12T23:16:49.584Z,19.60
2022-11-12T23:19:15.819Z,19.73
2022-11-12T23:21:42.017Z,19.50
2022-11-12T23:24:08.290Z,19.63
2022-11-12T23:26:34.665Z,19.83
2022-11-12T23:29:01.509Z,18.40
2022-11-12T23:31:29.548Z,19.83
2022-11-12T23:33:56.455Z,19.37
2022-11-12T23:36:23.435Z,19.17
2022-11-12T23:38:51.145Z,18.37
2022-11-12T23:41:19.773Z,19.90
2022-11-12T23:43:46.015Z,18.87
2022-11-12T23:46:13.078Z,18.60
2022-11-12T23:48:39.350Z,18.93
2022-11-12T23:51:07.909Z,19.40
2022-11-12T23:53:34.951Z,18.60
2022-11-12T23:56:01.683Z,18.50
2022-11-12T23:58:28.392Z,18.33
